sensor_id;sensor_type;location;lat;lon;timestamp;pressure;altitude;pressure_sealevel;temperature;humidity
37170;BME280;23062;13.952;100.608;2023-02-17T00:02:47;1014.02;;;28.13;53.39
37170;BME280;23062;13.952;100.608;2023-02-17T00:07:12;1014.06;;;28.21;53.47
37170;BME280;23062;13.952;100.608;2023-02-17T00:11:38;1014.09;;;28.25;53.59
37170;BME280;23062;13.952;100.608;2023-02-17T00:16:07;1014.22;;;28.24;53.61
37170;BME280;23062;13.952;100.608;2023-02-17T00:20:32;1014.34;;;28.23;53.49
37170;BME280;23062;13.952;100.608;2023-02-17T00:24:58;1014.42;;;28.18;53.53
37170;BME280;23062;13.952;100.608;2023-02-17T00:29:24;1014.49;;;28.18;54.17
37170;BME280;23062;13.952;100.608;2023-02-17T00:33:52;1014.54;;;28.07;55.02
37170;BME280;23062;13.952;100.608;2023-02-17T00:38:16;1014.64;;;27.90;55.09
37170;BME280;23062;13.952;100.608;2023-02-17T00:42:41;1014.75;;;27.94;55.37
37170;BME280;23062;13.952;100.608;2023-02-17T00:47:06;1014.76;;;27.97;55.37
37170;BME280;23062;13.952;100.608;2023-02-17T00:51:32;1014.76;;;28.04;55.69
37170;BME280;23062;13.952;100.608;2023-02-17T00:56:04;1014.80;;;28.09;56.06
37170;BME280;23062;13.952;100.608;2023-02-17T01:00:29;1014.89;;;28.13;55.84
37170;BME280;23062;13.952;100.608;2023-02-17T01:04:54;1014.97;;;28.22;56.18
37170;BME280;23062;13.952;100.608;2023-02-17T01:09:20;1015.06;;;28.25;56.11
37170;BME280;23062;13.952;100.608;2023-02-17T01:13:45;1015.17;;;28.23;55.80
37170;BME280;23062;13.952;100.608;2023-02-17T01:18:10;1015.20;;;28.25;55.48
37170;BME280;23062;13.952;100.608;2023-02-17T01:22:39;1015.32;;;28.21;55.63
37170;BME280;23062;13.952;100.608;2023-02-17T01:27:04;1015.48;;;28.25;55.76
37170;BME280;23062;13.952;100.608;2023-02-17T01:31:29;1015.47;;;28.20;55.96
37170;BME280;23062;13.952;100.608;2023-02-17T01:35:54;1015.47;;;28.13;56.27
37170;BME280;23062;13.952;100.608;2023-02-17T01:40:23;1015.57;;;28.12;56.60
37170;BME280;23062;13.952;100.608;2023-02-17T01:49:44;1015.68;;;28.21;56.83
37170;BME280;23062;13.952;100.608;2023-02-17T01:54:12;1015.61;;;28.26;56.21
37170;BME280;23062;13.952;100.608;2023-02-17T01:58:39;1015.69;;;28.21;55.66
37170;BME280;23062;13.952;100.608;2023-02-17T02:03:07;1015.72;;;28.12;55.49
37170;BME280;23062;13.952;100.608;2023-02-17T02:07:38;1015.76;;;28.23;55.68
37170;BME280;23062;13.952;100.608;2023-02-17T02:12:19;1015.72;;;28.33;55.73
37170;BME280;23062;13.952;100.608;2023-02-17T02:26:40;1015.96;;;28.25;54.45
37170;BME280;23062;13.952;100.608;2023-02-17T02:36:09;1016.14;;;28.34;53.87
37170;BME280;23062;13.952;100.608;2023-02-17T02:40:35;1016.28;;;28.50;54.36
37170;BME280;23062;13.952;100.608;2023-02-17T02:45:01;1016.32;;;28.55;54.63
37170;BME280;23062;13.952;100.608;2023-02-17T02:49:27;1016.32;;;28.46;54.37
37170;BME280;23062;13.952;100.608;2023-02-17T02:54:13;1016.36;;;28.68;54.02
37170;BME280;23062;13.952;100.608;2023-02-17T02:58:46;1016.33;;;28.71;52.71
37170;BME280;23062;13.952;100.608;2023-02-17T03:07:44;1016.40;;;28.63;51.53
37170;BME280;23062;13.952;100.608;2023-02-17T03:12:05;1016.40;;;28.53;50.81
37170;BME280;23062;13.952;100.608;2023-02-17T03:16:31;1016.36;;;28.37;51.05
37170;BME280;23062;13.952;100.608;2023-02-17T03:21:00;1016.27;;;28.40;51.80
37170;BME280;23062;13.952;100.608;2023-02-17T03:25:24;1016.24;;;28.63;52.40
37170;BME280;23062;13.952;100.608;2023-02-17T03:29:51;1016.18;;;28.73;53.08
37170;BME280;23062;13.952;100.608;2023-02-17T03:34:16;1016.15;;;28.73;53.58
37170;BME280;23062;13.952;100.608;2023-02-17T03:38:42;1016.06;;;28.80;53.91
37170;BME280;23062;13.952;100.608;2023-02-17T03:43:08;1016.07;;;28.86;54.06
37170;BME280;23062;13.952;100.608;2023-02-17T03:47:33;1015.98;;;28.88;54.31
37170;BME280;23062;13.952;100.608;2023-02-17T03:51:58;1015.95;;;28.90;54.55
37170;BME280;23062;13.952;100.608;2023-02-17T03:56:24;1015.98;;;28.95;54.77
37170;BME280;23062;13.952;100.608;2023-02-17T04:00:49;1015.89;;;28.96;55.04
37170;BME280;23062;13.952;100.608;2023-02-17T04:05:15;1015.88;;;29.02;55.08
37170;BME280;23062;13.952;100.608;2023-02-17T04:09:41;1015.77;;;29.03;55.23
37170;BME280;23062;13.952;100.608;2023-02-17T04:14:06;1015.67;;;29.02;55.34
37170;BME280;23062;13.952;100.608;2023-02-17T04:18:36;1015.59;;;29.06;55.40
37170;BME280;23062;13.952;100.608;2023-02-17T04:23:02;1015.52;;;29.05;55.32
37170;BME280;23062;13.952;100.608;2023-02-17T04:27:28;1015.45;;;29.05;55.42
37170;BME280;23062;13.952;100.608;2023-02-17T04:31:59;1015.36;;;29.00;55.53
37170;BME280;23062;13.952;100.608;2023-02-17T04:36:25;1015.20;;;29.00;55.55
37170;BME280;23062;13.952;100.608;2023-02-17T04:40:50;1015.16;;;29.01;55.51
37170;BME280;23062;13.952;100.608;2023-02-17T04:45:17;1015.08;;;29.04;55.41
37170;BME280;23062;13.952;100.608;2023-02-17T04:49:42;1015.01;;;29.04;55.46
37170;BME280;23062;13.952;100.608;2023-02-17T04:54:12;1014.97;;;29.21;53.14
37170;BME280;23062;13.952;100.608;2023-02-17T04:58:37;1014.91;;;29.26;52.51
37170;BME280;23062;13.952;100.608;2023-02-17T05:03:03;1014.91;;;29.35;48.60
37170;BME280;23062;13.952;100.608;2023-02-17T05:07:28;1014.87;;;29.40;47.96
37170;BME280;23062;13.952;100.608;2023-02-17T05:11:57;1014.70;;;29.40;48.63
37170;BME280;23062;13.952;100.608;2023-02-17T05:16:23;1014.63;;;29.43;48.19
37170;BME280;23062;13.952;100.608;2023-02-17T05:20:48;1014.60;;;29.43;48.55
37170;BME280;23062;13.952;100.608;2023-02-17T05:25:14;1014.61;;;29.56;46.83
37170;BME280;23062;13.952;100.608;2023-02-17T05:29:41;1014.50;;;29.54;46.97
37170;BME280;23062;13.952;100.608;2023-02-17T05:34:06;1014.37;;;29.50;47.42
37170;BME280;23062;13.952;100.608;2023-02-17T05:38:36;1014.30;;;29.50;47.75
37170;BME280;23062;13.952;100.608;2023-02-17T05:43:01;1014.25;;;29.70;46.78
37170;BME280;23062;13.952;100.608;2023-02-17T05:47:27;1014.15;;;29.79;46.51
37170;BME280;23062;13.952;100.608;2023-02-17T05:51:52;1014.08;;;29.92;45.88
37170;BME280;23062;13.952;100.608;2023-02-17T05:56:18;1013.93;;;29.81;46.81
37170;BME280;23062;13.952;100.608;2023-02-17T06:00:43;1013.83;;;29.73;47.51
37170;BME280;23062;13.952;100.608;2023-02-17T06:05:09;1013.81;;;29.78;47.04
37170;BME280;23062;13.952;100.608;2023-02-17T06:09:34;1013.69;;;29.81;45.72
37170;BME280;23062;13.952;100.608;2023-02-17T06:14:02;1013.58;;;29.91;44.84
37170;BME280;23062;13.952;100.608;2023-02-17T06:18:28;1013.52;;;29.81;45.80
37170;BME280;23062;13.952;100.608;2023-02-17T06:22:53;1013.47;;;29.80;45.60
37170;BME280;23062;13.952;100.608;2023-02-17T06:27:19;1013.37;;;29.70;46.46
37170;BME280;23062;13.952;100.608;2023-02-17T06:31:45;1013.26;;;29.64;46.96
37170;BME280;23062;13.952;100.608;2023-02-17T06:36:10;1013.21;;;29.71;46.66
37170;BME280;23062;13.952;100.608;2023-02-17T06:40:36;1013.04;;;29.74;47.54
37170;BME280;23062;13.952;100.608;2023-02-17T06:45:02;1013.00;;;29.73;48.22
37170;BME280;23062;13.952;100.608;2023-02-17T06:49:28;1012.97;;;29.70;48.59
37170;BME280;23062;13.952;100.608;2023-02-17T06:53:54;1012.91;;;29.68;48.74
37170;BME280;23062;13.952;100.608;2023-02-17T06:58:20;1012.78;;;29.71;48.71
37170;BME280;23062;13.952;100.608;2023-02-17T07:02:48;1012.70;;;29.67;49.27
37170;BME280;23062;13.952;100.608;2023-02-17T07:07:14;1012.56;;;29.72;49.05
37170;BME280;23062;13.952;100.608;2023-02-17T07:11:41;1012.58;;;29.74;49.25
37170;BME280;23062;13.952;100.608;2023-02-17T07:16:13;1012.47;;;29.76;50.10
37170;BME280;23062;13.952;100.608;2023-02-17T07:20:38;1012.46;;;29.69;51.11
37170;BME280;23062;13.952;100.608;2023-02-17T07:25:05;1012.37;;;29.67;51.45
37170;BME280;23062;13.952;100.608;2023-02-17T07:29:30;1012.38;;;29.67;51.70
37170;BME280;23062;13.952;100.608;2023-02-17T07:33:58;1012.27;;;29.69;51.43
37170;BME280;23062;13.952;100.608;2023-02-17T07:38:24;1012.19;;;29.68;51.08
37170;BME280;23062;13.952;100.608;2023-02-17T07:42:49;1012.13;;;29.72;50.75
37170;BME280;23062;13.952;100.608;2023-02-17T07:47:15;1012.04;;;29.72;50.63
37170;BME280;23062;13.952;100.608;2023-02-17T07:51:40;1012.05;;;29.79;50.63
37170;BME280;23062;13.952;100.608;2023-02-17T07:56:10;1012.02;;;29.74;50.90
37170;BME280;23062;13.952;100.608;2023-02-17T08:00:36;1011.96;;;29.79;50.52
37170;BME280;23062;13.952;100.608;2023-02-17T08:05:05;1011.86;;;29.83;49.95
37170;BME280;23062;13.952;100.608;2023-02-17T08:09:30;1011.76;;;29.88;49.76
37170;BME280;23062;13.952;100.608;2023-02-17T08:14:15;1011.74;;;29.89;50.06
37170;BME280;23062;13.952;100.608;2023-02-17T08:18:41;1011.67;;;29.86;50.28
37170;BME280;23062;13.952;100.608;2023-02-17T08:23:06;1011.70;;;29.83;50.47
37170;BME280;23062;13.952;100.608;2023-02-17T08:27:32;1011.73;;;29.84;50.70
37170;BME280;23062;13.952;100.608;2023-02-17T08:31:59;1011.73;;;29.85;50.84
37170;BME280;23062;13.952;100.608;2023-02-17T08:36:26;1011.80;;;29.83;51.16
37170;BME280;23062;13.952;100.608;2023-02-17T08:40:51;1011.72;;;29.81;50.73
37170;BME280;23062;13.952;100.608;2023-02-17T08:45:17;1011.72;;;29.80;50.99
37170;BME280;23062;13.952;100.608;2023-02-17T08:49:42;1011.76;;;29.80;51.01
37170;BME280;23062;13.952;100.608;2023-02-17T08:54:10;1011.74;;;29.79;50.99
37170;BME280;23062;13.952;100.608;2023-02-17T08:58:36;1011.77;;;29.80;50.75
37170;BME280;23062;13.952;100.608;2023-02-17T09:03:02;1011.75;;;29.75;50.81
37170;BME280;23062;13.952;100.608;2023-02-17T09:07:30;1011.75;;;29.74;50.68
37170;BME280;23062;13.952;100.608;2023-02-17T09:11:57;1011.78;;;29.71;50.19
37170;BME280;23062;13.952;100.608;2023-02-17T09:16:23;1011.80;;;29.65;50.70
37170;BME280;23062;13.952;100.608;2023-02-17T09:20:48;1011.84;;;29.65;50.95
37170;BME280;23062;13.952;100.608;2023-02-17T09:25:14;1011.85;;;29.60;51.58
37170;BME280;23062;13.952;100.608;2023-02-17T09:29:43;1011.84;;;29.55;52.01
37170;BME280;23062;13.952;100.608;2023-02-17T09:34:08;1011.86;;;29.50;52.70
37170;BME280;23062;13.952;100.608;2023-02-17T09:38:35;1011.84;;;29.48;53.31
37170;BME280;23062;13.952;100.608;2023-02-17T09:43:01;1011.94;;;29.56;53.51
37170;BME280;23062;13.952;100.608;2023-02-17T09:47:34;1012.03;;;29.54;53.02
37170;BME280;23062;13.952;100.608;2023-02-17T09:56:39;1012.13;;;29.55;53.29
37170;BME280;23062;13.952;100.608;2023-02-17T10:01:08;1012.19;;;29.45;53.26
37170;BME280;23062;13.952;100.608;2023-02-17T10:05:37;1012.18;;;29.33;52.17
37170;BME280;23062;13.952;100.608;2023-02-17T10:10:17;1012.19;;;29.28;51.96
37170;BME280;23062;13.952;100.608;2023-02-17T10:14:43;1012.27;;;29.23;51.82
37170;BME280;23062;13.952;100.608;2023-02-17T10:19:11;1012.36;;;29.23;51.87
37170;BME280;23062;13.952;100.608;2023-02-17T10:23:36;1012.40;;;29.18;51.07
37170;BME280;23062;13.952;100.608;2023-02-17T10:28:09;1012.40;;;29.14;51.21
37170;BME280;23062;13.952;100.608;2023-02-17T10:32:48;1012.52;;;29.12;50.72
37170;BME280;23062;13.952;100.608;2023-02-17T10:37:28;1012.55;;;29.09;50.40
37170;BME280;23062;13.952;100.608;2023-02-17T10:41:54;1012.59;;;29.15;49.95
37170;BME280;23062;13.952;100.608;2023-02-17T10:46:24;1012.67;;;29.13;49.83
37170;BME280;23062;13.952;100.608;2023-02-17T10:50:49;1012.71;;;29.10;49.68
37170;BME280;23062;13.952;100.608;2023-02-17T10:55:31;1012.81;;;29.13;49.49
37170;BME280;23062;13.952;100.608;2023-02-17T10:59:56;1012.84;;;29.12;49.66
37170;BME280;23062;13.952;100.608;2023-02-17T11:04:21;1012.89;;;29.14;48.91
37170;BME280;23062;13.952;100.608;2023-02-17T11:08:48;1012.92;;;29.15;49.33
37170;BME280;23062;13.952;100.608;2023-02-17T11:13:27;1012.91;;;29.06;49.04
37170;BME280;23062;13.952;100.608;2023-02-17T11:17:47;1012.93;;;29.03;48.59
37170;BME280;23062;13.952;100.608;2023-02-17T11:22:37;1012.93;;;29.06;49.24
37170;BME280;23062;13.952;100.608;2023-02-17T11:27:09;1013.04;;;28.97;48.56
37170;BME280;23062;13.952;100.608;2023-02-17T11:31:35;1013.07;;;29.00;48.75
37170;BME280;23062;13.952;100.608;2023-02-17T11:36:03;1013.10;;;28.98;48.71
37170;BME280;23062;13.952;100.608;2023-02-17T11:40:30;1013.16;;;29.03;49.18
37170;BME280;23062;13.952;100.608;2023-02-17T11:45:00;1013.25;;;28.94;49.57
37170;BME280;23062;13.952;100.608;2023-02-17T11:54:14;1013.30;;;28.87;49.68
37170;BME280;23062;13.952;100.608;2023-02-17T11:58:55;1013.32;;;28.89;49.94
37170;BME280;23062;13.952;100.608;2023-02-17T12:03:41;1013.33;;;28.87;49.99
37170;BME280;23062;13.952;100.608;2023-02-17T12:22:11;1013.42;;;29.00;50.72
37170;BME280;23062;13.952;100.608;2023-02-17T12:31:26;1013.51;;;29.35;50.22
37170;BME280;23062;13.952;100.608;2023-02-17T12:35:55;1013.51;;;29.43;50.19
37170;BME280;23062;13.952;100.608;2023-02-17T12:40:33;1013.56;;;29.44;50.34
37170;BME280;23062;13.952;100.608;2023-02-17T12:45:02;1013.64;;;29.49;50.39
37170;BME280;23062;13.952;100.608;2023-02-17T12:49:39;1013.67;;;29.51;50.56
37170;BME280;23062;13.952;100.608;2023-02-17T12:54:11;1013.70;;;29.52;50.72
37170;BME280;23062;13.952;100.608;2023-02-17T12:58:33;1013.83;;;29.52;50.79
37170;BME280;23062;13.952;100.608;2023-02-17T13:03:00;1013.95;;;29.53;50.87
37170;BME280;23062;13.952;100.608;2023-02-17T13:07:48;1013.94;;;29.51;50.88
37170;BME280;23062;13.952;100.608;2023-02-17T13:16:52;1014.04;;;29.53;51.03
37170;BME280;23062;13.952;100.608;2023-02-17T13:30:40;1014.16;;;29.54;51.19
37170;BME280;23062;13.952;100.608;2023-02-17T13:35:28;1014.20;;;29.54;51.29
37170;BME280;23062;13.952;100.608;2023-02-17T13:39:36;1014.32;;;29.53;51.23
37170;BME280;23062;13.952;100.608;2023-02-17T13:48:36;1014.40;;;29.55;51.31
37170;BME280;23062;13.952;100.608;2023-02-17T13:53:24;1014.39;;;29.54;51.23
37170;BME280;23062;13.952;100.608;2023-02-17T13:57:50;1014.56;;;29.54;51.21
37170;BME280;23062;13.952;100.608;2023-02-17T14:02:20;1014.63;;;29.54;51.35
37170;BME280;23062;13.952;100.608;2023-02-17T14:06:48;1014.65;;;29.53;51.30
37170;BME280;23062;13.952;100.608;2023-02-17T14:11:20;1014.62;;;29.53;51.27
37170;BME280;23062;13.952;100.608;2023-02-17T14:15:54;1014.69;;;29.53;51.22
37170;BME280;23062;13.952;100.608;2023-02-17T14:29:45;1014.56;;;29.51;51.12
37170;BME280;23062;13.952;100.608;2023-02-17T14:38:56;1014.68;;;29.52;51.30
37170;BME280;23062;13.952;100.608;2023-02-17T14:43:25;1014.72;;;29.52;51.15
37170;BME280;23062;13.952;100.608;2023-02-17T14:47:50;1014.77;;;29.51;51.15
37170;BME280;23062;13.952;100.608;2023-02-17T14:52:22;1014.76;;;29.51;51.19
37170;BME280;23062;13.952;100.608;2023-02-17T14:57:10;1014.78;;;29.50;51.22
37170;BME280;23062;13.952;100.608;2023-02-17T15:01:29;1014.80;;;29.50;51.43
37170;BME280;23062;13.952;100.608;2023-02-17T15:05:55;1014.77;;;29.48;51.49
37170;BME280;23062;13.952;100.608;2023-02-17T15:10:26;1014.73;;;29.48;51.50
37170;BME280;23062;13.952;100.608;2023-02-17T15:14:52;1014.73;;;29.47;51.48
37170;BME280;23062;13.952;100.608;2023-02-17T15:19:17;1014.77;;;29.48;51.58
37170;BME280;23062;13.952;100.608;2023-02-17T15:23:43;1014.75;;;29.49;51.67
37170;BME280;23062;13.952;100.608;2023-02-17T15:28:17;1014.73;;;29.47;51.53
37170;BME280;23062;13.952;100.608;2023-02-17T15:32:42;1014.76;;;29.48;51.76
37170;BME280;23062;13.952;100.608;2023-02-17T15:37:09;1014.78;;;29.47;51.70
37170;BME280;23062;13.952;100.608;2023-02-17T15:41:35;1014.73;;;29.46;51.76
37170;BME280;23062;13.952;100.608;2023-02-17T15:46:01;1014.69;;;29.45;51.82
37170;BME280;23062;13.952;100.608;2023-02-17T15:50:28;1014.66;;;29.45;51.70
37170;BME280;23062;13.952;100.608;2023-02-17T15:54:53;1014.64;;;29.44;51.68
37170;BME280;23062;13.952;100.608;2023-02-17T15:59:25;1014.71;;;29.45;52.05
37170;BME280;23062;13.952;100.608;2023-02-17T16:03:47;1014.70;;;29.44;51.83
37170;BME280;23062;13.952;100.608;2023-02-17T16:08:13;1014.71;;;29.44;51.92
37170;BME280;23062;13.952;100.608;2023-02-17T16:12:39;1014.80;;;29.43;51.90
37170;BME280;23062;13.952;100.608;2023-02-17T16:17:10;1014.81;;;29.44;51.78
37170;BME280;23062;13.952;100.608;2023-02-17T16:21:32;1014.72;;;29.43;51.95
37170;BME280;23062;13.952;100.608;2023-02-17T16:25:58;1014.71;;;29.42;52.26
37170;BME280;23062;13.952;100.608;2023-02-17T16:30:33;1014.62;;;29.40;52.04
37170;BME280;23062;13.952;100.608;2023-02-17T16:34:59;1014.57;;;29.41;52.25
37170;BME280;23062;13.952;100.608;2023-02-17T16:39:24;1014.57;;;29.41;52.21
37170;BME280;23062;13.952;100.608;2023-02-17T16:43:50;1014.50;;;29.41;51.96
37170;BME280;23062;13.952;100.608;2023-02-17T16:48:15;1014.42;;;29.39;52.06
37170;BME280;23062;13.952;100.608;2023-02-17T16:52:41;1014.48;;;29.40;51.89
37170;BME280;23062;13.952;100.608;2023-02-17T16:57:14;1014.34;;;29.39;51.99
37170;BME280;23062;13.952;100.608;2023-02-17T17:01:36;1014.25;;;29.37;51.89
37170;BME280;23062;13.952;100.608;2023-02-17T17:06:04;1014.19;;;29.36;52.24
37170;BME280;23062;13.952;100.608;2023-02-17T17:10:30;1014.17;;;29.36;52.04
37170;BME280;23062;13.952;100.608;2023-02-17T17:14:56;1014.16;;;29.35;51.94
37170;BME280;23062;13.952;100.608;2023-02-17T17:19:22;1014.20;;;29.34;52.11
37170;BME280;23062;13.952;100.608;2023-02-17T17:23:48;1014.18;;;29.33;52.38
37170;BME280;23062;13.952;100.608;2023-02-17T17:28:18;1014.19;;;29.33;51.96
37170;BME280;23062;13.952;100.608;2023-02-17T17:32:43;1014.17;;;29.32;52.04
37170;BME280;23062;13.952;100.608;2023-02-17T17:37:10;1014.15;;;29.31;52.15
37170;BME280;23062;13.952;100.608;2023-02-17T17:41:35;1014.12;;;29.31;52.37
37170;BME280;23062;13.952;100.608;2023-02-17T17:46:01;1014.02;;;29.29;52.25
37170;BME280;23062;13.952;100.608;2023-02-17T17:50:26;1014.03;;;29.28;52.38
37170;BME280;23062;13.952;100.608;2023-02-17T17:54:52;1014.06;;;29.29;52.40
37170;BME280;23062;13.952;100.608;2023-02-17T17:59:17;1014.04;;;29.28;52.72
37170;BME280;23062;13.952;100.608;2023-02-17T18:03:46;1013.98;;;29.28;52.70
37170;BME280;23062;13.952;100.608;2023-02-17T18:08:11;1013.92;;;29.26;52.71
37170;BME280;23062;13.952;100.608;2023-02-17T18:12:41;1013.81;;;29.25;52.72
37170;BME280;23062;13.952;100.608;2023-02-17T18:17:10;1013.75;;;29.26;52.72
37170;BME280;23062;13.952;100.608;2023-02-17T18:21:40;1013.76;;;29.25;52.91
37170;BME280;23062;13.952;100.608;2023-02-17T18:26:05;1013.68;;;29.24;52.85
37170;BME280;23062;13.952;100.608;2023-02-17T18:30:31;1013.73;;;29.24;52.70
37170;BME280;23062;13.952;100.608;2023-02-17T18:34:59;1013.78;;;29.24;52.80
37170;BME280;23062;13.952;100.608;2023-02-17T18:39:26;1013.82;;;29.23;52.74
37170;BME280;23062;13.952;100.608;2023-02-17T18:43:51;1013.69;;;29.21;52.66
37170;BME280;23062;13.952;100.608;2023-02-17T18:48:17;1013.62;;;29.21;52.65
37170;BME280;23062;13.952;100.608;2023-02-17T18:52:43;1013.59;;;29.20;52.88
37170;BME280;23062;13.952;100.608;2023-02-17T18:57:08;1013.50;;;29.20;52.87
37170;BME280;23062;13.952;100.608;2023-02-17T19:01:36;1013.47;;;29.19;52.96
37170;BME280;23062;13.952;100.608;2023-02-17T19:06:16;1013.47;;;29.18;52.88
37170;BME280;23062;13.952;100.608;2023-02-17T19:10:46;1013.44;;;29.19;52.89
37170;BME280;23062;13.952;100.608;2023-02-17T19:15:11;1013.31;;;29.18;52.98
37170;BME280;23062;13.952;100.608;2023-02-17T19:19:39;1013.33;;;29.17;52.94
37170;BME280;23062;13.952;100.608;2023-02-17T19:24:04;1013.33;;;29.17;52.91
37170;BME280;23062;13.952;100.608;2023-02-17T19:28:30;1013.41;;;29.16;52.88
37170;BME280;23062;13.952;100.608;2023-02-17T19:32:55;1013.34;;;29.15;52.86
37170;BME280;23062;13.952;100.608;2023-02-17T19:37:20;1013.31;;;29.14;52.98
37170;BME280;23062;13.952;100.608;2023-02-17T19:41:48;1013.39;;;29.14;53.00
37170;BME280;23062;13.952;100.608;2023-02-17T19:46:17;1013.38;;;29.14;52.85
37170;BME280;23062;13.952;100.608;2023-02-17T19:50:45;1013.40;;;29.14;52.95
37170;BME280;23062;13.952;100.608;2023-02-17T19:55:11;1013.51;;;29.13;53.00
37170;BME280;23062;13.952;100.608;2023-02-17T19:59:37;1013.44;;;29.12;52.94
37170;BME280;23062;13.952;100.608;2023-02-17T20:04:03;1013.39;;;29.11;52.89
37170;BME280;23062;13.952;100.608;2023-02-17T20:08:29;1013.39;;;29.10;52.96
37170;BME280;23062;13.952;100.608;2023-02-17T20:12:54;1013.34;;;29.08;52.92
37170;BME280;23062;13.952;100.608;2023-02-17T20:17:19;1013.41;;;29.08;52.88
37170;BME280;23062;13.952;100.608;2023-02-17T20:21:45;1013.41;;;29.07;52.80
37170;BME280;23062;13.952;100.608;2023-02-17T20:26:13;1013.32;;;29.06;52.79
37170;BME280;23062;13.952;100.608;2023-02-17T20:30:39;1013.28;;;29.04;52.75
37170;BME280;23062;13.952;100.608;2023-02-17T20:35:06;1013.22;;;29.03;52.31
37170;BME280;23062;13.952;100.608;2023-02-17T20:39:32;1013.08;;;29.03;52.62
37170;BME280;23062;13.952;100.608;2023-02-17T20:44:00;1013.03;;;29.03;52.62
37170;BME280;23062;13.952;100.608;2023-02-17T20:48:27;1012.94;;;29.03;52.56
37170;BME280;23062;13.952;100.608;2023-02-17T20:52:53;1012.85;;;29.03;52.62
37170;BME280;23062;13.952;100.608;2023-02-17T20:57:18;1012.88;;;29.02;52.55
37170;BME280;23062;13.952;100.608;2023-02-17T21:01:43;1012.87;;;28.99;52.61
37170;BME280;23062;13.952;100.608;2023-02-17T21:06:26;1012.85;;;28.93;51.50
37170;BME280;23062;13.952;100.608;2023-02-17T21:10:52;1012.71;;;28.73;51.50
37170;BME280;23062;13.952;100.608;2023-02-17T21:15:17;1012.61;;;28.61;51.86
37170;BME280;23062;13.952;100.608;2023-02-17T21:19:43;1012.59;;;28.57;51.91
37170;BME280;23062;13.952;100.608;2023-02-17T21:24:08;1012.47;;;28.51;52.17
37170;BME280;23062;13.952;100.608;2023-02-17T21:28:35;1012.37;;;28.44;52.23
37170;BME280;23062;13.952;100.608;2023-02-17T21:33:02;1012.41;;;28.40;52.18
37170;BME280;23062;13.952;100.608;2023-02-17T21:37:28;1012.36;;;28.41;52.57
37170;BME280;23062;13.952;100.608;2023-02-17T21:41:53;1012.51;;;28.37;52.53
37170;BME280;23062;13.952;100.608;2023-02-17T21:46:19;1012.59;;;28.43;52.57
37170;BME280;23062;13.952;100.608;2023-02-17T21:50:46;1012.69;;;28.42;52.71
37170;BME280;23062;13.952;100.608;2023-02-17T21:55:12;1012.74;;;28.46;52.78
37170;BME280;23062;13.952;100.608;2023-02-17T21:59:37;1012.67;;;28.41;52.94
37170;BME280;23062;13.952;100.608;2023-02-17T22:04:02;1012.67;;;28.32;53.25
37170;BME280;23062;13.952;100.608;2023-02-17T22:08:29;1012.65;;;28.33;53.95
37170;BME280;23062;13.952;100.608;2023-02-17T22:12:54;1012.58;;;28.28;55.23
37170;BME280;23062;13.952;100.608;2023-02-17T22:17:20;1012.65;;;28.27;55.50
37170;BME280;23062;13.952;100.608;2023-02-17T22:21:46;1012.62;;;28.28;56.29
37170;BME280;23062;13.952;100.608;2023-02-17T22:26:14;1012.61;;;28.25;56.49
37170;BME280;23062;13.952;100.608;2023-02-17T22:30:40;1012.76;;;28.16;57.22
37170;BME280;23062;13.952;100.608;2023-02-17T22:35:05;1012.82;;;28.19;57.58
37170;BME280;23062;13.952;100.608;2023-02-17T22:39:30;1012.91;;;28.23;56.84
37170;BME280;23062;13.952;100.608;2023-02-17T22:43:56;1012.88;;;28.20;56.67
37170;BME280;23062;13.952;100.608;2023-02-17T22:48:21;1012.96;;;28.23;56.90
37170;BME280;23062;13.952;100.608;2023-02-17T22:52:47;1012.90;;;28.20;57.27
37170;BME280;23062;13.952;100.608;2023-02-17T22:57:12;1012.90;;;28.12;57.09
37170;BME280;23062;13.952;100.608;2023-02-17T23:01:37;1013.02;;;28.06;57.09
37170;BME280;23062;13.952;100.608;2023-02-17T23:06:05;1013.09;;;28.07;57.00
37170;BME280;23062;13.952;100.608;2023-02-17T23:10:31;1013.16;;;28.08;57.02
37170;BME280;23062;13.952;100.608;2023-02-17T23:15:00;1013.24;;;28.08;57.51
37170;BME280;23062;13.952;100.608;2023-02-17T23:19:26;1013.22;;;28.06;57.37
37170;BME280;23062;13.952;100.608;2023-02-17T23:23:52;1013.28;;;27.62;57.97
37170;BME280;23062;13.952;100.608;2023-02-17T23:28:19;1013.32;;;27.48;58.50
37170;BME280;23062;13.952;100.608;2023-02-17T23:32:45;1013.43;;;27.30;59.09
37170;BME280;23062;13.952;100.608;2023-02-17T23:37:12;1013.53;;;27.43;58.60
37170;BME280;23062;13.952;100.608;2023-02-17T23:41:38;1013.57;;;27.52;59.18
37170;BME280;23062;13.952;100.608;2023-02-17T23:46:03;1013.62;;;27.37;59.08
37170;BME280;23062;13.952;100.608;2023-02-17T23:50:28;1013.66;;;27.47;59.26
37170;BME280;23062;13.952;100.608;2023-02-17T23:54:53;1013.74;;;27.38;59.65
37170;BME280;23062;13.952;100.608;2023-02-17T23:59:19;1013.77;;;27.47;59.53
